Time;durP1;ratioP1;P1;durP2;ratioP2;P2;SDS_P1;SDS_P2;PMS_P1;PMS_P2;Temp;Humidity;BMP_temperature;BMP_pressure;BME280_temperature;BME280_humidity;BME280_pressure;Samples;Min_cycle;Max_cycle;Signal;HPM_P1;HPM_P2
2021/06/24 00:00:00;;;;;;;90.03;23.25;;;;;;;19.53;99.50;98061.31;5002566;28;20220;-67
2021/06/24 00:02:28;;;;;;;88.03;26.70;;;;;;;19.67;98.36;98065.53;4999501;28;20239;-67
2021/06/24 00:04:55;;;;;;;82.60;29.30;;;;;;;19.76;97.05;98072.81;4999873;28;20258;-66
2021/06/24 00:07:21;;;;;;;86.50;30.38;;;;;;;19.72;96.10;98075.75;5000132;28;20243;-67
2021/06/24 00:09:48;;;;;;;81.68;29.08;;;;;;;19.88;95.54;98080.75;4999875;28;20215;-66
2021/06/24 00:12:14;;;;;;;94.22;31.17;;;;;;;19.86;95.09;98095.91;4999727;28;20243;-66
2021/06/24 00:14:41;;;;;;;75.55;28.35;;;;;;;19.77;95.79;98103.59;5000333;28;20224;-66
2021/06/24 00:17:07;;;;;;;85.05;31.27;;;;;;;19.80;94.87;98106.00;4999584;28;20235;-67
2021/06/24 00:19:35;;;;;;;88.03;29.55;;;;;;;19.67;95.76;98121.13;5001081;28;20220;-66
2021/06/24 00:22:02;;;;;;;92.28;30.80;;;;;;;19.75;94.48;98121.38;4999091;28;21040;-67
2021/06/24 00:24:28;;;;;;;82.65;30.70;;;;;;;19.68;95.35;98128.06;4999884;28;20211;-66
2021/06/24 00:26:55;;;;;;;97.10;31.35;;;;;;;19.71;94.71;98133.16;5000323;28;20246;-67
2021/06/24 00:29:21;;;;;;;93.18;38.30;;;;;;;19.77;94.73;98137.16;4999071;28;20222;-67
2021/06/24 00:31:48;;;;;;;97.68;33.42;;;;;;;19.74;95.28;98130.31;4999934;28;20247;-67
2021/06/24 00:34:14;;;;;;;90.55;32.97;;;;;;;19.68;95.69;98130.72;5000262;28;20253;-66
2021/06/24 00:36:42;;;;;;;84.68;33.08;;;;;;;19.81;93.81;98131.53;5000511;28;20242;-67
2021/06/24 00:39:08;;;;;;;82.45;30.50;;;;;;;19.62;95.29;98131.19;4999922;28;20223;-66
2021/06/24 00:41:35;;;;;;;107.25;31.40;;;;;;;19.56;97.46;98126.38;4998637;28;20235;-67
2021/06/24 00:44:02;;;;;;;74.97;21.27;;;;;;;19.56;97.26;98121.94;5000506;28;20234;-67
2021/06/24 00:46:28;;;;;;;88.65;23.05;;;;;;;19.87;94.70;98122.28;5005089;28;20839;-66
2021/06/24 00:48:59;;;;;;;75.32;21.75;;;;;;;19.57;96.24;98117.47;5004149;28;20227;-66
2021/06/24 00:51:25;;;;;;;93.50;23.48;;;;;;;19.49;98.62;98109.28;5004995;28;20325;-67
2021/06/24 00:53:54;;;;;;;84.90;22.75;;;;;;;19.53;99.25;98110.72;5003906;28;20239;-67
2021/06/24 00:56:27;;;;;;;95.50;24.63;;;;;;;19.61;98.32;98103.03;5003073;28;20246;-67
2021/06/24 00:58:54;;;;;;;82.03;22.40;;;;;;;20.12;94.99;98102.66;5005551;28;20211;-66
2021/06/24 01:01:20;;;;;;;71.10;21.75;;;;;;;20.29;93.67;98087.22;5003517;28;20242;-67
2021/06/24 01:03:47;;;;;;;78.47;21.92;;;;;;;20.57;91.49;98069.97;5002841;28;20338;-66
2021/06/24 01:06:13;;;;;;;92.45;25.63;;;;;;;20.32;92.54;98065.81;5002849;28;20250;-67
2021/06/24 01:08:40;;;;;;;67.78;21.63;;;;;;;20.31;92.41;98062.31;5004328;28;20250;-67
2021/06/24 01:11:08;;;;;;;77.32;24.92;;;;;;;20.18;93.28;98046.56;5004726;28;20235;-66
2021/06/24 01:13:34;;;;;;;86.15;27.83;;;;;;;19.76;96.19;98038.41;5006522;28;20243;-67
2021/06/24 01:16:01;;;;;;;66.63;22.27;;;;;;;19.87;95.82;98019.03;5002689;28;20240;-67
2021/06/24 01:18:28;;;;;;;85.95;25.27;;;;;;;19.93;96.07;98001.81;5003067;28;20218;-67
2021/06/24 01:20:54;;;;;;;91.68;26.77;;;;;;;20.25;93.82;97986.00;5002984;28;20242;-67
2021/06/24 01:23:22;;;;;;;77.85;24.23;;;;;;;20.40;93.18;97975.94;5003128;28;20244;-66
2021/06/24 01:25:50;;;;;;;74.57;23.23;;;;;;;20.57;90.89;97969.28;5003645;28;20243;-67
2021/06/24 01:28:16;;;;;;;76.85;27.05;;;;;;;20.49;91.48;97983.16;5003768;28;20215;-67
2021/06/24 01:30:43;;;;;;;74.57;24.25;;;;;;;20.93;88.74;97991.91;5004766;28;20266;-67
2021/06/24 01:33:11;;;;;;;64.82;22.42;;;;;;;21.05;88.15;97974.13;5003557;28;20243;-66
2021/06/24 01:35:38;;;;;;;78.65;16.50;;;;;;;21.35;85.82;97953.94;5004566;28;20246;-67
2021/06/24 01:38:06;;;;;;;83.50;27.00;;;;;;;21.06;86.72;97932.53;5003396;28;20226;-66
2021/06/24 01:40:33;;;;;;;82.43;26.75;;;;;;;20.70;87.88;97929.41;5002169;28;20247;-67
2021/06/24 01:43:01;;;;;;;92.55;28.05;;;;;;;20.79;86.84;97937.41;5003434;28;20234;-67
2021/06/24 01:45:27;;;;;;;96.38;29.08;;;;;;;20.26;90.05;97947.13;5002559;28;20286;-67
2021/06/24 01:47:55;;;;;;;71.95;25.15;;;;;;;20.42;89.43;97948.38;5003329;28;20219;-67
2021/06/24 01:50:21;;;;;;;94.65;29.75;;;;;;;19.91;92.58;97958.75;5001724;28;20218;-66
2021/06/24 01:52:49;;;;;;;71.60;23.70;;;;;;;20.32;90.77;97973.94;5001981;28;20235;-66
2021/06/24 01:55:17;;;;;;;81.38;24.27;;;;;;;20.66;88.91;97967.69;5003238;28;20410;-67
2021/06/24 01:57:43;;;;;;;83.75;25.15;;;;;;;20.88;87.03;97962.31;5003392;28;20660;-67
2021/06/24 02:00:13;;;;;;;70.22;21.10;;;;;;;20.83;88.50;97964.50;5002463;28;20222;-66
2021/06/24 02:02:41;;;;;;;88.95;28.65;;;;;;;20.53;88.92;97962.53;5002217;28;20247;-66
2021/06/24 02:05:09;;;;;;;74.68;26.25;;;;;;;20.47;89.69;97969.19;5003986;28;20278;-67
2021/06/24 02:07:39;;;;;;;83.95;28.35;;;;;;;20.27;88.92;97980.56;5002826;28;20219;-67
2021/06/24 02:10:07;;;;;;;78.93;28.38;;;;;;;20.39;88.96;97992.81;5001663;28;20277;-67
2021/06/24 02:12:34;;;;;;;82.20;29.15;;;;;;;20.22;89.96;98000.34;5001520;28;20240;-67
2021/06/24 02:15:01;;;;;;;90.72;28.05;;;;;;;20.11;90.42;98004.81;5003159;28;20628;-67
2021/06/24 02:17:28;;;;;;;90.13;25.73;;;;;;;19.81;94.18;97999.19;5002872;28;20231;-67
2021/06/24 02:19:55;;;;;;;79.30;23.75;;;;;;;19.71;94.67;98006.13;5004116;28;20216;-66
2021/06/24 02:22:21;;;;;;;92.13;27.13;;;;;;;19.64;95.12;98008.41;5002384;28;20235;-66
2021/06/24 02:24:48;;;;;;;94.97;27.48;;;;;;;19.79;94.60;98011.69;5002420;28;20219;-66
2021/06/24 02:27:15;;;;;;;88.72;28.83;;;;;;;19.86;93.98;98012.03;5002669;28;20236;-67
2021/06/24 02:29:41;;;;;;;103.20;35.22;;;;;;;19.89;94.34;98010.94;5004067;28;20219;-66
2021/06/24 02:32:08;;;;;;;86.13;27.75;;;;;;;19.97;94.52;98014.69;5000851;28;20231;-66
2021/06/24 02:34:36;;;;;;;67.28;23.52;;;;;;;20.51;90.49;98015.69;5001302;28;20215;-66
2021/06/24 02:37:03;;;;;;;146.45;36.20;;;;;;;20.17;92.13;98012.25;5000858;28;20239;-67
2021/06/24 02:39:29;;;;;;;73.38;23.95;;;;;;;20.01;93.03;98015.28;5002282;28;20219;-67
2021/06/24 02:41:56;;;;;;;89.05;27.40;;;;;;;19.89;93.54;98011.81;5001122;28;20239;-66
2021/06/24 02:44:22;;;;;;;76.82;24.02;;;;;;;20.08;92.10;98005.88;5002419;28;20236;-67
2021/06/24 02:46:49;;;;;;;94.07;27.73;;;;;;;20.13;92.00;97998.41;5001061;28;20262;-66
2021/06/24 02:49:15;;;;;;;97.55;30.73;;;;;;;20.17;91.57;98005.16;5002791;28;20219;-66
2021/06/24 02:51:46;;;;;;;93.13;24.67;;;;;;;20.55;90.02;98003.84;5000232;28;20493;-68
2021/06/24 02:54:12;;;;;;;88.22;26.48;;;;;;;20.47;89.94;97994.84;5001866;28;20243;-68
2021/06/24 02:56:40;;;;;;;77.60;25.48;;;;;;;20.81;88.20;97995.59;5000602;28;20236;-67
2021/06/24 02:59:06;;;;;;;79.10;25.60;;;;;;;20.88;87.51;97999.44;5001780;28;20219;-67
2021/06/24 03:01:33;;;;;;;93.45;29.15;;;;;;;20.95;87.08;97999.72;5002094;28;20845;-67
2021/06/24 03:04:00;;;;;;;87.38;28.63;;;;;;;20.88;86.37;97996.78;5002199;28;20250;-67
2021/06/24 03:06:26;;;;;;;85.47;27.63;;;;;;;20.84;86.67;97997.97;5001225;28;20265;-66
2021/06/24 03:08:54;;;;;;;82.80;25.40;;;;;;;20.83;87.53;97995.47;5001619;28;20223;-67
2021/06/24 03:11:21;;;;;;;84.45;26.92;;;;;;;20.51;88.35;97991.84;5000993;28;20891;-66
2021/06/24 03:13:49;;;;;;;84.95;24.73;;;;;;;20.60;87.97;97999.06;5001036;28;20977;-66
2021/06/24 03:16:16;;;;;;;87.57;29.92;;;;;;;20.22;89.78;97996.84;5001090;28;20832;-67
2021/06/24 03:18:45;;;;;;;99.68;31.15;;;;;;;20.12;90.35;97996.72;5000209;28;20219;-67
2021/06/24 03:21:11;;;;;;;75.72;26.75;;;;;;;20.11;90.81;98002.16;5000772;28;20262;-66
2021/06/24 03:23:38;;;;;;;80.63;26.70;;;;;;;20.09;90.61;97996.13;5001665;28;20244;-66
2021/06/24 03:26:06;;;;;;;80.97;25.58;;;;;;;19.65;93.78;97988.09;5002551;28;20243;-67
2021/06/24 03:28:32;;;;;;;76.70;22.80;;;;;;;19.91;91.88;97993.16;5001044;28;20219;-67
2021/06/24 03:30:59;;;;;;;89.07;25.25;;;;;;;20.04;91.31;97993.88;5000689;28;20240;-66
2021/06/24 03:33:26;;;;;;;98.43;26.33;;;;;;;19.85;92.72;97997.16;4999820;28;20239;-66
2021/06/24 03:35:52;;;;;;;89.30;26.17;;;;;;;19.59;94.16;98004.44;5000503;28;20238;-66
2021/06/24 03:38:19;;;;;;;82.43;25.10;;;;;;;19.54;95.48;97998.69;5000306;28;20208;-67
2021/06/24 03:40:45;;;;;;;94.88;26.00;;;;;;;19.97;92.95;98003.25;5000213;28;20231;-69
2021/06/24 03:43:13;;;;;;;77.75;20.63;;;;;;;20.21;91.28;98001.28;4999845;28;20250;-66
2021/06/24 03:45:40;;;;;;;79.18;21.35;;;;;;;20.31;90.75;98008.47;5000714;28;20258;-67
2021/06/24 03:48:08;;;;;;;85.50;22.08;;;;;;;20.29;90.72;98002.47;5002115;28;20476;-67
2021/06/24 03:50:35;;;;;;;88.50;24.17;;;;;;;19.88;92.50;98004.00;5001076;28;20235;-67
2021/06/24 03:53:01;;;;;;;77.20;22.85;;;;;;;19.75;94.32;98007.59;5001048;28;20235;-66
2021/06/24 03:55:37;;;;;;;95.10;25.77;;;;;;;19.75;95.01;98007.59;5002724;28;20239;-67
2021/06/24 03:58:04;;;;;;;80.25;25.40;;;;;;;19.71;95.52;98008.78;5001141;28;20214;-66
2021/06/24 04:00:33;;;;;;;89.43;27.50;;;;;;;19.53;96.74;98010.22;5001050;28;20243;-67
2021/06/24 04:02:59;;;;;;;73.65;25.42;;;;;;;19.47;97.46;98010.69;5000179;28;20231;-66
2021/06/24 04:05:28;;;;;;;88.70;26.95;;;;;;;19.49;97.42;98006.94;5000952;28;20207;-67
2021/06/24 04:07:54;;;;;;;98.35;27.70;;;;;;;19.47;98.04;98011.53;5001680;28;20218;-66
2021/06/24 04:10:21;;;;;;;91.53;28.65;;;;;;;19.43;98.62;98010.91;4999971;28;20235;-66
2021/06/24 04:12:47;;;;;;;102.05;28.98;;;;;;;19.51;98.50;98004.19;4999855;28;20227;-68
2021/06/24 04:15:15;;;;;;;79.22;25.27;;;;;;;19.91;95.37;98003.75;5000421;28;20619;-67
2021/06/24 04:17:43;;;;;;;83.25;24.98;;;;;;;20.50;91.16;98000.75;5002348;28;20207;-67
2021/06/24 04:20:10;;;;;;;81.82;27.55;;;;;;;20.78;88.84;97999.31;5000893;28;20211;-67
2021/06/24 04:22:37;;;;;;;70.05;26.17;;;;;;;20.89;87.66;97998.44;4999281;28;21120;-68
2021/06/24 04:25:03;;;;;;;81.95;31.40;;;;;;;20.01;93.81;98004.69;5001120;28;20215;-68
2021/06/24 04:27:30;;;;;;;89.13;29.00;;;;;;;19.76;96.36;98006.66;5001404;28;20241;-67
2021/06/24 04:29:56;;;;;;;91.88;31.10;;;;;;;19.74;97.26;98013.88;5001859;28;20223;-66
2021/06/24 04:32:23;;;;;;;92.75;29.08;;;;;;;19.79;96.19;98003.75;5000740;28;20257;-66
2021/06/24 04:34:51;;;;;;;101.50;30.98;;;;;;;19.99;95.04;98011.91;4999465;28;20222;-65
2021/06/24 04:37:18;;;;;;;79.78;26.05;;;;;;;20.43;91.04;98010.16;4999095;28;20235;-67
2021/06/24 04:39:44;;;;;;;89.97;28.48;;;;;;;20.47;90.54;98005.44;4999901;28;20220;-65
2021/06/24 04:42:11;;;;;;;78.18;28.08;;;;;;;20.30;91.66;98009.47;4999323;28;20231;-67
2021/06/24 04:44:38;;;;;;;84.63;28.13;;;;;;;20.50;90.30;98011.34;5000062;28;20222;-66
2021/06/24 04:47:04;;;;;;;83.28;28.58;;;;;;;20.79;88.44;98003.69;4999332;28;20239;-66
2021/06/24 04:49:31;;;;;;;77.70;28.45;;;;;;;20.82;87.77;98010.53;5001257;28;20716;-68
2021/06/24 04:51:59;;;;;;;96.03;32.97;;;;;;;20.81;88.00;97998.25;4999946;28;20243;-66
2021/06/24 04:54:25;;;;;;;86.25;27.50;;;;;;;20.98;87.13;98002.97;5001738;28;20255;-66
2021/06/24 04:56:52;;;;;;;83.25;24.50;;;;;;;21.52;84.26;98002.91;4999862;28;20239;-65
2021/06/24 04:59:18;;;;;;;88.97;25.90;;;;;;;21.59;83.20;97998.75;4999865;28;20787;-65
2021/06/24 05:01:45;;;;;;;157.15;35.67;;;;;;;21.66;82.72;97988.47;4996220;28;20231;-66
2021/06/24 05:04:11;;;;;;;70.60;26.10;;;;;;;21.79;82.09;97985.59;4996545;28;20242;-68
2021/06/24 05:06:39;;;;;;;67.47;27.10;;;;;;;21.52;83.01;97987.00;5001596;28;20239;-68
2021/06/24 05:09:07;;;;;;;64.68;24.85;;;;;;;21.36;83.93;97990.94;5002322;28;20219;-65
2021/06/24 05:11:33;;;;;;;77.88;24.60;;;;;;;21.58;82.98;97986.47;5002687;28;20322;-66
2021/06/24 05:14:00;;;;;;;56.80;21.38;;;;;;;21.62;82.80;97990.53;5002999;28;20249;-66
2021/06/24 05:16:27;;;;;;;60.22;24.85;;;;;;;21.31;84.93;97993.13;5001563;28;20232;-68
2021/06/24 05:18:53;;;;;;;65.07;22.02;;;;;;;21.44;84.13;97989.44;5002534;28;20223;-67
2021/06/24 05:21:20;;;;;;;51.58;20.67;;;;;;;21.54;83.53;97985.03;5002877;28;20239;-68
2021/06/24 05:23:47;;;;;;;73.03;26.58;;;;;;;20.83;89.10;97985.72;5002954;28;20733;-67
2021/06/24 05:27:30;;;;;;;65.68;25.13;;;;;;;21.48;83.78;97986.41;5079635;27;21478;-71
2021/06/24 05:29:58;;;;;;;79.55;28.58;;;;;;;21.59;84.65;97984.66;5079670;28;20772;-67
2021/06/24 05:32:24;;;;;;;75.97;27.15;;;;;;;21.42;88.04;97991.41;5079153;28;20242;-66
2021/06/24 05:34:51;;;;;;;68.10;25.90;;;;;;;21.36;89.58;97992.75;5079354;28;20946;-67
2021/06/24 05:37:17;;;;;;;64.00;24.20;;;;;;;21.51;87.86;97995.94;5079193;28;20483;-67
2021/06/24 05:39:44;;;;;;;75.38;27.10;;;;;;;21.31;86.97;97990.47;5079182;28;20212;-67
2021/06/24 05:42:10;;;;;;;73.32;28.80;;;;;;;21.57;85.77;97992.75;5079168;28;20248;-66
2021/06/24 05:44:38;;;;;;;73.80;25.17;;;;;;;21.83;88.23;97995.78;5078924;28;20216;-66
2021/06/24 05:47:05;;;;;;;73.88;28.77;;;;;;;21.97;88.96;97997.25;5078612;28;20244;-67
2021/06/24 05:49:31;;;;;;;71.80;23.75;;;;;;;21.98;90.71;97996.25;5079412;28;21282;-68
2021/06/24 05:51:58;;;;;;;74.82;25.02;;;;;;;21.99;86.70;98000.59;5078767;28;20239;-67
2021/06/24 05:54:24;;;;;;;76.68;27.67;;;;;;;21.52;88.14;97997.59;5079525;28;20228;-66
2021/06/24 05:56:51;;;;;;;79.22;28.67;;;;;;;21.23;88.45;98000.91;5079089;28;20721;-67
2021/06/24 05:59:17;;;;;;;63.85;22.50;;;;;;;21.71;84.89;98000.38;5078730;28;20213;-68
2021/06/24 06:01:47;;;;;;;93.47;29.77;;;;;;;21.66;85.16;97999.91;5078775;28;20241;-68
2021/06/24 06:04:15;;;;;;;71.80;16.38;;;;;;;22.06;84.75;98001.75;5079099;28;20233;-67
2021/06/24 06:06:41;;;;;;;68.15;20.45;;;;;;;21.46;83.99;97998.97;5078727;28;20244;-67
2021/06/24 06:09:08;;;;;;;65.63;20.00;;;;;;;21.19;86.04;98004.78;5079220;28;20209;-67
2021/06/24 06:11:35;;;;;;;85.25;19.77;;;;;;;21.73;85.38;98001.06;5077938;28;20232;-67
2021/06/24 06:14:01;;;;;;;73.03;21.48;;;;;;;21.14;84.21;97999.06;5079446;28;20252;-67
2021/06/24 06:16:28;;;;;;;69.20;21.15;;;;;;;21.26;84.61;97997.16;5078607;28;20229;-67
2021/06/24 06:18:56;;;;;;;77.55;22.20;;;;;;;21.40;84.87;97993.34;5079315;28;20592;-67
2021/06/24 06:21:23;;;;;;;67.40;20.02;;;;;;;21.33;84.24;97991.19;5078639;28;20243;-67
2021/06/24 06:23:50;;;;;;;71.88;20.95;;;;;;;21.67;82.65;97985.69;5079129;28;20243;-67
2021/06/24 06:26:16;;;;;;;62.40;17.48;;;;;;;21.68;84.41;97992.66;5078484;28;20733;-67
2021/06/24 06:28:43;;;;;;;68.97;19.08;;;;;;;21.67;83.40;97995.44;5077873;28;20217;-67
2021/06/24 06:31:10;;;;;;;62.78;17.20;;;;;;;21.56;84.49;97983.13;5078063;28;20938;-67
2021/06/24 06:33:36;;;;;;;65.63;17.05;;;;;;;21.74;83.58;97992.13;5078702;28;20651;-67
2021/06/24 06:36:05;;;;;;;56.25;18.13;;;;;;;21.44;83.92;97992.09;5078611;28;20233;-67
2021/06/24 06:38:31;;;;;;;72.10;19.65;;;;;;;21.45;83.89;97996.44;5066911;28;20740;-67
2021/06/24 06:40:58;;;;;;;64.32;17.80;;;;;;;21.65;82.82;98000.91;5064776;28;20236;-67
2021/06/24 06:43:25;;;;;;;66.35;19.20;;;;;;;20.98;85.65;97994.19;5064449;28;20257;-67
2021/06/24 06:45:52;;;;;;;60.97;17.30;;;;;;;21.51;85.27;97994.13;5064085;28;20241;-67
2021/06/24 06:48:19;;;;;;;68.25;20.48;;;;;;;21.25;85.60;97990.19;5065505;28;20221;-66
2021/06/24 06:50:46;;;;;;;61.25;21.23;;;;;;;20.97;85.99;97990.69;5064631;28;20236;-67
2021/06/24 06:53:14;;;;;;;62.90;20.30;;;;;;;20.84;87.39;97989.19;5064948;28;20241;-67
2021/06/24 06:55:40;;;;;;;60.10;19.33;;;;;;;20.84;88.54;97997.97;5064111;28;20406;-67
2021/06/24 06:58:07;;;;;;;70.72;22.10;;;;;;;20.70;90.48;97993.00;5065375;28;20225;-67
2021/06/24 07:00:34;;;;;;;68.32;21.73;;;;;;;20.58;91.32;97993.00;5063714;28;20664;-67
2021/06/24 07:03:01;;;;;;;68.43;21.08;;;;;;;20.42;94.80;97995.25;5064865;28;20268;-67
2021/06/24 07:05:28;;;;;;;69.90;20.88;;;;;;;20.77;91.34;97992.34;5064260;28;20243;-67
2021/06/24 07:07:54;;;;;;;70.10;22.10;;;;;;;20.74;91.76;97987.31;5064773;28;20241;-67
2021/06/24 07:10:23;;;;;;;65.93;19.25;;;;;;;21.36;86.23;97993.59;5064210;28;20213;-67
2021/06/24 07:12:50;;;;;;;69.10;20.70;;;;;;;21.34;87.34;97995.53;5064691;28;20234;-67
2021/06/24 07:15:16;;;;;;;63.97;20.02;;;;;;;21.23;85.93;97995.63;5064059;28;20209;-66
2021/06/24 07:17:43;;;;;;;74.75;24.40;;;;;;;21.30;86.36;97987.97;5064609;28;20249;-67
2021/06/24 07:20:12;;;;;;;59.97;23.10;;;;;;;21.91;82.98;97997.78;5062938;28;20738;-67
2021/06/24 07:22:39;;;;;;;69.97;25.15;;;;;;;22.12;81.70;97995.88;5064386;28;20243;-67
2021/06/24 07:25:07;;;;;;;73.57;23.95;;;;;;;22.24;83.02;97986.00;5064755;28;20218;-67
2021/06/24 07:27:35;;;;;;;39.00;18.58;;;;;;;22.96;77.55;97988.44;5084490;28;20244;-66
2021/06/24 07:30:02;;;;;;;51.60;20.13;;;;;;;22.98;77.06;97984.66;5084905;28;20216;-67
2021/06/24 07:32:28;;;;;;;67.00;19.40;;;;;;;23.13;76.03;97987.75;5083417;28;20237;-68
2021/06/24 07:34:55;;;;;;;54.55;18.60;;;;;;;23.18;75.64;97992.66;5084905;28;20221;-68
2021/06/24 07:37:21;;;;;;;67.30;19.20;;;;;;;23.44;74.39;97976.91;5082689;28;20224;-67
2021/06/24 07:39:48;;;;;;;63.83;21.92;;;;;;;23.43;74.60;97985.84;5084716;28;20213;-67
2021/06/24 07:42:16;;;;;;;61.90;19.58;;;;;;;23.67;73.53;97988.88;5083569;28;20236;-67
2021/06/24 07:44:43;;;;;;;63.45;23.83;;;;;;;23.70;74.08;97981.56;5084490;28;20220;-67
2021/06/24 07:47:10;;;;;;;58.30;22.25;;;;;;;24.10;71.29;97985.75;5083287;28;20244;-67
2021/06/24 07:49:36;;;;;;;58.67;20.67;;;;;;;24.18;70.60;97985.84;5083291;28;20213;-67
2021/06/24 07:52:03;;;;;;;63.53;18.90;;;;;;;24.29;70.02;97974.97;5083256;28;20232;-67
2021/06/24 07:54:30;;;;;;;57.88;18.63;;;;;;;23.82;71.08;97975.09;5084169;28;20232;-67
2021/06/24 07:56:57;;;;;;;56.78;18.17;;;;;;;23.86;71.73;97976.50;5083435;28;20233;-67
2021/06/24 07:59:23;;;;;;;68.78;21.33;;;;;;;24.10;70.69;97969.78;5083809;28;20941;-67
2021/06/24 08:01:51;;;;;;;75.22;21.77;;;;;;;24.29;70.14;97969.63;5081420;28;20228;-67
2021/06/24 08:04:18;;;;;;;67.97;27.23;;;;;;;24.38;69.59;97975.91;5083286;28;20244;-67
2021/06/24 08:06:44;;;;;;;65.32;21.27;;;;;;;24.54;68.45;97965.44;5082419;28;20247;-67
2021/06/24 08:09:13;;;;;;;60.35;21.92;;;;;;;24.39;68.96;97978.41;5084021;28;20224;-67
2021/06/24 08:11:40;;;;;;;75.68;22.77;;;;;;;24.89;66.73;97968.25;5082060;28;20232;-67
2021/06/24 08:14:06;;;;;;;64.00;19.85;;;;;;;24.95;66.87;97972.94;5083727;28;20248;-66
2021/06/24 08:16:33;;;;;;;59.47;19.58;;;;;;;24.70;67.17;97978.06;5082717;28;20228;-67
2021/06/24 08:19:01;;;;;;;68.38;22.35;;;;;;;24.54;68.93;97970.75;5083838;28;20223;-67
2021/06/24 08:21:27;;;;;;;63.35;23.27;;;;;;;25.16;65.71;97965.44;5081705;28;20784;-67
2021/06/24 08:23:54;;;;;;;62.83;21.73;;;;;;;24.55;67.49;97963.59;5083855;28;20237;-67
2021/06/24 08:26:20;;;;;;;56.28;19.67;;;;;;;24.93;66.49;97974.94;5082583;28;20236;-67
2021/06/24 08:28:47;;;;;;;75.82;21.73;;;;;;;24.82;66.37;97968.84;5083507;28;20213;-67
2021/06/24 08:31:13;;;;;;;59.63;18.95;;;;;;;24.86;66.35;97965.88;5082947;28;20243;-67
2021/06/24 08:33:40;;;;;;;55.05;18.65;;;;;;;25.19;65.37;97967.78;5083052;28;20233;-67
2021/06/24 08:36:08;;;;;;;63.75;21.27;;;;;;;24.46;69.64;97967.97;5083189;28;20233;-67
2021/06/24 08:38:35;;;;;;;64.15;18.25;;;;;;;24.70;66.98;97964.72;5082347;28;20662;-67
2021/06/24 08:41:01;;;;;;;58.78;17.35;;;;;;;24.92;65.98;97962.56;5082739;28;20243;-68
2021/06/24 08:43:28;;;;;;;65.63;18.90;;;;;;;25.18;64.98;97957.25;5082391;28;20233;-67
2021/06/24 08:45:57;;;;;;;61.55;19.02;;;;;;;25.41;63.50;97952.25;5082641;28;20243;-67
2021/06/24 08:48:26;;;;;;;56.65;17.67;;;;;;;24.26;65.53;97951.28;5082544;28;20239;-67
2021/06/24 08:50:53;;;;;;;72.10;22.92;;;;;;;24.04;67.07;97948.06;5082301;28;20248;-67
2021/06/24 08:53:22;;;;;;;71.43;22.80;;;;;;;23.89;66.51;97959.34;5082414;28;20248;-67
2021/06/24 08:55:53;;;;;;;66.78;21.95;;;;;;;23.58;66.85;97957.78;5082146;28;20237;-67
2021/06/24 08:58:20;;;;;;;66.15;21.65;;;;;;;23.99;68.72;97955.66;5082636;28;20285;-67
2021/06/24 09:00:46;;;;;;;56.67;15.68;;;;;;;24.67;66.54;97949.03;5082353;28;20229;-67
2021/06/24 09:03:15;;;;;;;53.42;14.88;;;;;;;24.77;64.57;97951.63;5082707;28;20247;-67
2021/06/24 09:05:50;;;;;;;61.55;16.10;;;;;;;24.44;65.26;97949.47;5082405;28;20285;-67
2021/06/24 09:08:25;;;;;;;64.13;15.93;;;;;;;24.40;64.80;97957.91;5082822;28;20232;-67
2021/06/24 09:11:13;;;;;;;64.43;17.25;;;;;;;24.78;64.29;97948.81;5081745;28;20236;-67
2021/06/24 09:13:40;;;;;;;58.88;17.90;;;;;;;25.27;62.38;97947.50;5082553;28;20232;-68
2021/06/24 09:16:19;;;;;;;63.92;17.88;;;;;;;24.48;63.63;97954.50;5081931;28;20243;-67
2021/06/24 09:18:45;;;;;;;55.05;16.02;;;;;;;24.64;63.36;97949.34;5082904;28;20212;-67
2021/06/24 09:21:18;;;;;;;62.55;18.33;;;;;;;24.89;63.57;97954.91;5082517;28;20281;-67
2021/06/24 09:23:47;;;;;;;64.63;17.85;;;;;;;24.23;61.50;97963.09;5082723;28;20229;-67
2021/06/24 09:26:14;;;;;;;57.95;15.85;;;;;;;23.63;62.91;97952.84;5082290;28;20313;-67
2021/06/24 09:28:42;;;;;;;59.30;17.33;;;;;;;23.29;67.42;97960.56;5082695;28;20232;-67
2021/06/24 09:31:22;;;;;;;64.93;17.98;;;;;;;23.38;67.22;97967.66;5082185;28;20328;-67
2021/06/24 09:33:48;;;;;;;64.15;19.20;;;;;;;23.52;65.58;97961.03;5082424;28;20221;-67
2021/06/24 09:36:34;;;;;;;63.70;18.52;;;;;;;23.22;67.72;97962.94;5082181;28;20228;-67
2021/06/24 09:39:03;;;;;;;53.13;18.83;;;;;;;23.19;72.06;97975.69;5082391;28;20213;-67
2021/06/24 09:41:29;;;;;;;61.05;21.65;;;;;;;23.27;68.30;97974.00;5081749;28;20240;-66
2021/06/24 09:43:56;;;;;;;62.60;21.52;;;;;;;22.62;71.43;97975.56;5082440;28;20338;-67
2021/06/24 09:46:26;;;;;;;64.18;18.95;;;;;;;22.49;71.43;97982.00;5082045;28;20237;-67
2021/06/24 09:48:55;;;;;;;69.05;19.30;;;;;;;22.31;74.31;97983.66;5082196;28;20213;-67
2021/06/24 09:51:24;;;;;;;81.32;22.55;;;;;;;22.43;74.53;97979.06;5081919;28;20236;-67
2021/06/24 09:53:52;;;;;;;67.32;18.05;;;;;;;22.40;73.29;97982.00;5082304;28;20232;-67
2021/06/24 09:56:34;;;;;;;68.07;19.15;;;;;;;22.60;74.13;97977.53;5081417;28;20245;-67
2021/06/24 09:59:04;;;;;;;60.13;18.17;;;;;;;22.35;75.18;97976.25;5082117;28;20213;-67
2021/06/24 10:01:33;;;;;;;81.93;20.67;;;;;;;22.40;75.43;97980.16;5081074;28;20767;-67
2021/06/24 10:04:02;;;;;;;64.72;18.92;;;;;;;22.39;73.92;97975.84;5081975;28;20233;-67
2021/06/24 10:06:29;;;;;;;67.85;19.80;;;;;;;22.52;75.19;97972.91;5081501;28;20240;-69
2021/06/24 10:08:56;;;;;;;63.90;20.55;;;;;;;23.03;77.16;97973.56;5082149;28;20201;-67
2021/06/24 10:11:25;;;;;;;63.60;22.75;;;;;;;23.34;74.94;97970.75;5079881;28;20240;-67
2021/06/24 10:13:53;;;;;;;65.60;23.90;;;;;;;23.08;76.36;97989.97;5084784;28;20764;-67
2021/06/24 10:16:19;;;;;;;75.95;24.73;;;;;;;23.27;71.26;97981.16;5085395;28;20240;-66
2021/06/24 10:18:47;;;;;;;63.10;13.88;;;;;;;23.41;73.45;97974.50;5085999;28;20201;-67
2021/06/24 10:21:15;;;;;;;64.72;15.18;;;;;;;23.14;76.13;97986.78;5085360;28;20249;-67
2021/06/24 10:23:47;;;;;;;61.05;15.60;;;;;;;22.79;71.89;97982.88;5084868;28;20236;-66
2021/06/24 10:26:14;;;;;;;60.78;14.55;;;;;;;22.59;76.92;97986.47;5085250;28;20228;-67
2021/06/24 10:28:41;;;;;;;58.15;14.85;;;;;;;22.62;78.01;97996.84;5085421;28;20737;-68
2021/06/24 10:31:35;;;;;;;58.08;16.10;;;;;;;22.19;78.17;97998.00;5085630;28;20247;-66
2021/06/24 10:34:03;;;;;;;47.00;15.70;;;;;;;22.39;78.81;98007.72;5085547;28;20236;-67
2021/06/24 10:36:30;;;;;;;59.40;19.10;;;;;;;22.06;77.56;98000.91;5084841;28;20267;-67
2021/06/24 10:38:57;;;;;;;63.13;20.30;;;;;;;22.19;77.70;97995.34;5085108;28;20197;-66
2021/06/24 10:41:24;;;;;;;75.18;21.50;;;;;;;22.28;76.66;97987.44;5084709;28;20653;-67
2021/06/24 10:43:52;;;;;;;68.20;22.23;;;;;;;22.54;77.77;97994.03;5084907;28;20237;-67
2021/06/24 10:46:22;;;;;;;68.05;21.30;;;;;;;22.64;76.74;97992.22;5084685;28;20323;-67
2021/06/24 10:48:48;;;;;;;71.95;28.08;;;;;;;22.96;78.53;97994.59;5084972;28;20244;-67
2021/06/24 10:51:16;;;;;;;73.75;29.95;;;;;;;23.13;77.21;97993.06;5084862;28;20241;-66
2021/06/24 10:53:48;;;;;;;66.68;27.27;;;;;;;22.77;73.82;97987.44;5084787;28;20294;-68
2021/06/24 10:56:43;;;;;;;77.00;28.20;;;;;;;22.50;79.65;97986.34;5085199;28;20298;-67
2021/06/24 10:59:24;;;;;;;61.63;27.55;;;;;;;22.46;80.33;97986.75;5084866;28;20216;-67
2021/06/24 11:01:52;;;;;;;84.32;33.03;;;;;;;22.84;78.53;97975.28;5084425;28;20228;-68
2021/06/24 11:04:34;;;;;;;72.68;29.73;;;;;;;22.89;76.95;97978.34;5084468;28;20263;-67
2021/06/24 11:07:07;;;;;;;60.95;28.85;;;;;;;22.96;75.61;97975.16;5084534;28;20319;-68
2021/06/24 11:09:34;;;;;;;61.17;32.85;;;;;;;23.29;77.24;97982.66;5084258;28;20200;-67
2021/06/24 11:12:00;;;;;;;76.00;35.92;;;;;;;23.54;79.67;97980.34;5083082;28;20229;-68
2021/06/24 11:14:54;;;;;;;66.68;32.08;;;;;;;23.41;75.37;97977.19;5084538;28;20225;-67
2021/06/24 11:17:44;;;;;;;77.65;33.40;;;;;;;23.34;71.83;97976.91;5083945;28;20260;-67
2021/06/24 11:20:12;;;;;;;66.97;36.95;;;;;;;23.03;71.77;97978.91;5084105;28;20262;-67